Time;durP1;ratioP1;P1;durP2;ratioP2;P2;SDS_P1;SDS_P2;PMS_P1;PMS_P2;Temp;Humidity;BMP_temperature;BMP_pressure;BME280_temperature;BME280_humidity;BME280_pressure;Samples;Min_cycle;Max_cycle;Signal;HPM_P1;HPM_P2
2023/05/25 00:00:54;;;;;;;20.85;11.48;;;;;;;-146.82;100.00;71671.09;5033617;28;20021;-78
2023/05/25 00:03:19;;;;;;;26.15;11.48;;;;;;;-146.82;100.00;71671.09;5028872;28;20356;-78
2023/05/25 00:05:47;;;;;;;23.38;9.95;;;;;;;-146.82;100.00;71671.09;5033206;28;20029;-78
2023/05/25 00:08:13;;;;;;;26.27;12.00;;;;;;;-146.82;100.00;71671.09;5033047;28;20079;-78
2023/05/25 00:10:39;;;;;;;22.85;11.40;;;;;;;-146.82;100.00;71671.09;5033013;28;20378;-78
2023/05/25 00:13:05;;;;;;;26.42;13.35;;;;;;;-146.82;100.00;71671.09;5031932;28;20034;-77
2023/05/25 00:15:32;;;;;;;22.58;10.82;;;;;;;-146.82;100.00;71671.09;5033148;28;20025;-78
2023/05/25 00:18:05;;;;;;;22.00;11.93;;;;;;;-146.82;100.00;71671.09;5032960;28;20021;-77
2023/05/25 00:20:32;;;;;;;21.60;11.80;;;;;;;-146.82;100.00;71671.09;5032837;28;20478;-78
2023/05/25 00:22:58;;;;;;;23.20;12.02;;;;;;;-146.82;100.00;71671.09;5033152;28;20045;-78
2023/05/25 00:25:26;;;;;;;22.38;12.02;;;;;;;-146.82;100.00;71671.09;5031916;28;20040;-77
2023/05/25 00:27:51;;;;;;;20.60;12.48;;;;;;;-146.82;100.00;71671.09;5033003;28;20378;-77
2023/05/25 00:30:17;;;;;;;22.67;12.38;;;;;;;-146.82;100.00;71671.09;5032805;28;20022;-77
2023/05/25 00:32:46;;;;;;;42.60;12.63;;;;;;;-146.82;100.00;71671.09;5032815;28;20033;-78
2023/05/25 00:35:12;;;;;;;24.50;11.68;;;;;;;-146.82;100.00;71671.09;5033065;28;20143;-78
2023/05/25 00:37:38;;;;;;;21.67;12.38;;;;;;;-146.82;100.00;71671.09;5033017;28;20021;-76
2023/05/25 00:40:07;;;;;;;25.25;12.18;;;;;;;-146.82;100.00;71671.09;5031783;28;20053;-78
2023/05/25 00:42:47;;;;;;;22.38;12.88;;;;;;;-146.82;100.00;71671.09;5015465;28;20028;-76
2023/05/25 00:45:13;;;;;;;31.92;13.45;;;;;;;-146.82;100.00;71671.09;5032712;28;20029;-78
2023/05/25 00:47:38;;;;;;;28.02;13.23;;;;;;;-146.82;100.00;71671.09;5031099;28;20071;-78
2023/05/25 00:50:09;;;;;;;25.50;12.70;;;;;;;-146.82;100.00;71671.09;5032484;28;20379;-77
2023/05/25 00:52:38;;;;;;;23.17;12.05;;;;;;;-146.82;100.00;71671.09;5031408;28;20040;-77
2023/05/25 00:55:20;;;;;;;25.58;12.07;;;;;;;-146.82;100.00;71671.09;5031163;28;20108;-77
2023/05/25 00:57:56;;;;;;;23.50;13.30;;;;;;;-146.82;100.00;71671.09;5031411;28;20096;-79
2023/05/25 01:00:22;;;;;;;29.45;13.40;;;;;;;-146.82;100.00;71671.09;5031153;28;20455;-77
2023/05/25 01:02:51;;;;;;;23.88;12.15;;;;;;;-146.82;100.00;71671.09;5035522;28;20463;-77
2023/05/25 01:05:29;;;;;;;23.02;11.82;;;;;;;-146.82;100.00;71671.09;5019340;28;20041;-79
2023/05/25 01:08:00;;;;;;;24.25;12.98;;;;;;;-146.82;100.00;71671.09;5035182;28;20516;-77
2023/05/25 01:10:29;;;;;;;23.77;12.70;;;;;;;-146.82;100.00;71671.09;5034986;28;20029;-77
2023/05/25 01:13:10;;;;;;;23.67;13.57;;;;;;;-146.82;100.00;71671.09;5018647;28;20049;-78
2023/05/25 01:15:38;;;;;;;28.40;13.45;;;;;;;-146.82;100.00;71671.09;5035202;28;20025;-77
2023/05/25 01:18:08;;;;;;;26.70;13.73;;;;;;;-146.82;100.00;71671.09;5035120;28;20032;-78
2023/05/25 01:20:34;;;;;;;26.38;14.60;;;;;;;-146.82;100.00;71671.09;5036106;28;20474;-77
2023/05/25 01:23:12;;;;;;;28.50;13.27;;;;;;;-146.82;100.00;71671.09;5018473;28;20083;-78
2023/05/25 01:25:44;;;;;;;27.75;12.10;;;;;;;-146.82;100.00;71671.09;5034995;28;20104;-77
2023/05/25 01:28:29;;;;;;;28.63;13.80;;;;;;;-146.82;100.00;71671.09;5036714;28;20360;-77
2023/05/25 01:30:56;;;;;;;26.45;13.68;;;;;;;-146.82;100.00;71671.09;5036047;28;20037;-76
2023/05/25 01:33:23;;;;;;;27.85;14.82;;;;;;;-146.82;100.00;71671.09;5035813;28;20076;-76
2023/05/25 01:35:49;;;;;;;29.30;14.00;;;;;;;-146.82;100.00;71671.09;5018050;28;20367;-78
2023/05/25 01:38:17;;;;;;;32.72;13.85;;;;;;;-146.82;100.00;71671.09;5034690;28;20166;-77
2023/05/25 01:40:43;;;;;;;26.48;14.13;;;;;;;-146.82;100.00;71671.09;5036763;28;20040;-77
2023/05/25 01:43:09;;;;;;;33.80;14.32;;;;;;;-146.82;100.00;71671.09;5035987;28;20084;-79
2023/05/25 01:45:36;;;;;;;26.65;13.35;;;;;;;-146.82;100.00;71671.09;5035609;28;20041;-77
2023/05/25 01:48:52;;;;;;;22.23;13.02;;;;;;;-146.82;100.00;71671.09;5034221;28;20026;-78
2023/05/25 01:51:35;;;;;;;26.45;14.93;;;;;;;-146.82;100.00;71671.09;5034986;28;20048;-76
2023/05/25 01:54:28;;;;;;;29.35;14.00;;;;;;;-146.82;100.00;71671.09;5035532;28;20429;-78
2023/05/25 01:57:00;;;;;;;22.75;11.73;;;;;;;-146.82;100.00;71671.09;5035477;28;20029;-77
2023/05/25 01:59:28;;;;;;;22.88;12.27;;;;;;;-146.82;100.00;71671.09;5033158;28;20483;-78
2023/05/25 02:01:57;;;;;;;31.27;14.73;;;;;;;-146.82;100.00;71671.09;5032995;28;20059;-77
2023/05/25 02:04:23;;;;;;;21.17;12.57;;;;;;;-146.82;100.00;71671.09;5032984;28;20087;-78
2023/05/25 02:06:50;;;;;;;26.63;13.40;;;;;;;-146.82;100.00;71671.09;5033214;28;20033;-77
2023/05/25 02:09:17;;;;;;;25.15;13.57;;;;;;;-146.82;100.00;71671.09;5033218;28;20041;-78
2023/05/25 02:11:42;;;;;;;25.10;12.77;;;;;;;-146.82;100.00;71671.09;5034038;28;20095;-76
2023/05/25 02:14:08;;;;;;;20.35;12.45;;;;;;;-146.82;100.00;71671.09;5032367;28;20025;-77
2023/05/25 02:16:33;;;;;;;24.67;12.35;;;;;;;-146.82;100.00;71671.09;5034179;28;20463;-77
2023/05/25 02:19:00;;;;;;;34.13;13.10;;;;;;;-146.82;100.00;71671.09;5033941;28;20052;-77
2023/05/25 02:21:27;;;;;;;27.52;12.05;;;;;;;-146.82;100.00;71671.09;5033388;28;20041;-77
2023/05/25 02:23:57;;;;;;;18.77;11.73;;;;;;;-146.82;100.00;71671.09;5034322;28;20025;-77
2023/05/25 02:26:24;;;;;;;28.67;13.23;;;;;;;-146.82;100.00;71671.09;5033891;28;20029;-78
2023/05/25 02:28:52;;;;;;;29.65;14.10;;;;;;;-146.82;100.00;71671.09;5033789;28;20535;-77
2023/05/25 02:31:18;;;;;;;26.70;12.50;;;;;;;-146.82;100.00;71671.09;5033919;28;20383;-77
2023/05/25 02:33:46;;;;;;;28.65;13.77;;;;;;;-146.82;100.00;71671.09;5033864;28;20037;-76
2023/05/25 02:36:12;;;;;;;25.98;13.68;;;;;;;-146.82;100.00;71671.09;5030761;28;20165;-77
2023/05/25 02:38:37;;;;;;;22.80;12.98;;;;;;;-146.82;100.00;71671.09;5033948;28;20036;-77
2023/05/25 02:41:04;;;;;;;28.33;12.48;;;;;;;-146.82;100.00;71671.09;5033955;28;20018;-77
2023/05/25 02:43:31;;;;;;;30.52;14.18;;;;;;;-146.82;100.00;71671.09;5033877;28;20116;-76
2023/05/25 02:45:57;;;;;;;27.92;13.05;;;;;;;-146.82;100.00;71671.09;5033459;28;20052;-77
2023/05/25 02:48:23;;;;;;;30.83;13.65;;;;;;;-146.82;100.00;71671.09;5032527;28;20029;-76
2023/05/25 02:50:49;;;;;;;23.45;13.90;;;;;;;-146.82;100.00;71671.09;5015661;28;20029;-77
2023/05/25 02:53:16;;;;;;;26.77;14.23;;;;;;;-146.82;100.00;71671.09;5033584;28;20133;-78
2023/05/25 02:55:42;;;;;;;28.48;14.65;;;;;;;-146.82;100.00;71671.09;5033604;28;20100;-77
2023/05/25 03:00:38;;;;;;;31.25;14.68;;;;;;;;;;5174769;27;20126;-77
2023/05/25 03:03:03;;;;;;;22.55;12.77;;;;;;;;;;5153224;27;20479;-76
2023/05/25 03:05:28;;;;;;;32.00;14.45;;;;;;;;;;5152560;27;20370;-76
2023/05/25 03:07:54;;;;;;;25.85;13.88;;;;;;;;;;5152112;27;20425;-77
2023/05/25 03:10:19;;;;;;;29.85;14.95;;;;;;;;;;5151940;27;20519;-77
2023/05/25 03:12:44;;;;;;;24.15;13.65;;;;;;;;;;5151561;27;20479;-76
2023/05/25 03:15:12;;;;;;;26.05;14.30;;;;;;;;;;5151395;27;20065;-77
2023/05/25 03:17:37;;;;;;;32.00;14.75;;;;;;;;;;5151419;27;20080;-76
2023/05/25 03:20:03;;;;;;;27.85;15.10;;;;;;;;;;5151383;27;20023;-77
2023/05/25 03:22:28;;;;;;;30.75;15.27;;;;;;;;;;5151372;27;20037;-76
2023/05/25 03:24:53;;;;;;;26.17;14.47;;;;;;;;;;5151497;27;20011;-78
2023/05/25 03:27:18;;;;;;;28.25;13.25;;;;;;;;;;5151296;27;20268;-76
2023/05/25 03:29:44;;;;;;;26.63;13.82;;;;;;;;;;5151059;27;20068;-77
2023/05/25 03:32:09;;;;;;;25.13;13.18;;;;;;;;;;5150915;27;20029;-76
2023/05/25 03:34:36;;;;;;;26.15;13.30;;;;;;;;;;5151196;27;20102;-77
2023/05/25 03:37:01;;;;;;;25.23;14.38;;;;;;;;;;5150871;27;20380;-78
2023/05/25 03:39:26;;;;;;;27.02;14.80;;;;;;;;;;5150919;27;20030;-78
2023/05/25 03:41:52;;;;;;;24.15;14.10;;;;;;;;;;5150770;27;20519;-78
2023/05/25 03:44:17;;;;;;;31.67;16.75;;;;;;;;;;5134331;27;20023;-78
2023/05/25 03:46:42;;;;;;;24.65;15.18;;;;;;;;;;5129982;27;20018;-77
2023/05/25 03:49:12;;;;;;;27.15;15.00;;;;;;;;;;5130185;28;20464;-76
2023/05/25 03:51:37;;;;;;;29.55;15.43;;;;;;;;;;5111708;28;20068;-78
2023/05/25 03:54:03;;;;;;;25.02;14.05;;;;;;;;;;5111824;28;20019;-77
2023/05/25 03:56:28;;;;;;;25.48;14.05;;;;;;;;;;5130257;28;20026;-77
2023/05/25 03:58:53;;;;;;;22.25;12.20;;;;;;;;;;5129913;27;20039;-77
2023/05/25 04:01:19;;;;;;;24.45;12.00;;;;;;;;;;5111285;28;20019;-78
2023/05/25 04:03:44;;;;;;;27.60;12.93;;;;;;;;;;5130129;28;20023;-77
2023/05/25 04:06:10;;;;;;;21.65;12.05;;;;;;;;;;5130074;27;20504;-78
2023/05/25 04:08:35;;;;;;;23.67;11.65;;;;;;;;;;5130078;28;20023;-78
2023/05/25 04:11:01;;;;;;;22.65;11.52;;;;;;;;;;5121669;27;20026;-78
2023/05/25 04:13:26;;;;;;;22.25;11.43;;;;;;;;;;5097590;28;20165;-79
2023/05/25 04:15:51;;;;;;;29.17;12.73;;;;;;;;;;5115754;28;20472;-79
2023/05/25 04:18:17;;;;;;;24.55;13.40;;;;;;;;;;5115761;28;20023;-79
2023/05/25 04:20:44;;;;;;;20.23;11.45;;;;;;;;;;5115849;28;20049;-77
2023/05/25 04:23:10;;;;;;;23.70;11.73;;;;;;;;;;5115974;28;20084;-78
2023/05/25 04:25:36;;;;;;;21.05;12.77;;;;;;;;;;5115862;28;20394;-78
2023/05/25 04:28:01;;;;;;;21.83;11.65;;;;;;;;;;5115535;28;20033;-78
2023/05/25 04:30:27;;;;;;;24.10;12.77;;;;;;;;;;5115407;28;20027;-77
2023/05/25 04:32:53;;;;;;;20.58;11.63;;;;;;;;;;5115780;28;20429;-77
2023/05/25 04:35:19;;;;;;;21.35;12.15;;;;;;;;;;5115366;28;20016;-77
2023/05/25 04:37:45;;;;;;;22.55;11.75;;;;;;;;;;5115527;28;20077;-78
2023/05/25 04:40:12;;;;;;;17.40;10.65;;;;;;;;;;5115588;28;20058;-77
2023/05/25 04:42:38;;;;;;;20.63;10.93;;;;;;;;;;5115315;28;20019;-77
2023/05/25 04:45:04;;;;;;;17.27;12.05;;;;;;;;;;5115281;28;20015;-79
2023/05/25 04:47:29;;;;;;;18.67;11.45;;;;;;;;;;5115232;28;20443;-78
2023/05/25 04:49:55;;;;;;;18.02;10.63;;;;;;;;;;5115081;28;20582;-78
2023/05/25 04:52:20;;;;;;;18.45;11.60;;;;;;;;;;5096773;28;20031;-78
2023/05/25 04:54:46;;;;;;;27.60;12.15;;;;;;;;;;5115311;28;20024;-78
2023/05/25 04:57:11;;;;;;;25.67;12.55;;;;;;;;;;5115330;28;20422;-78
2023/05/25 04:59:36;;;;;;;19.85;12.00;;;;;;;;;;5114849;28;20114;-78
2023/05/25 05:02:02;;;;;;;26.05;12.65;;;;;;;;;;5114915;28;20015;-79
2023/05/25 05:04:27;;;;;;;22.50;12.07;;;;;;;;;;5115100;28;20015;-78
2023/05/25 05:06:53;;;;;;;25.27;12.00;;;;;;;;;;5114672;28;20411;-77
2023/05/25 05:09:19;;;;;;;26.25;11.85;;;;;;;;;;5114850;28;20043;-78
2023/05/25 05:11:44;;;;;;;21.17;11.70;;;;;;;;;;5114980;28;20095;-77
2023/05/25 05:14:10;;;;;;;26.25;11.23;;;;;;;;;;5114471;28;20361;-78
2023/05/25 05:16:36;;;;;;;33.22;12.00;;;;;;;;;;5096244;28;20440;-77
2023/05/25 05:19:01;;;;;;;24.23;12.05;;;;;;;;;;5114977;28;20152;-78
2023/05/25 05:21:26;;;;;;;19.27;10.73;;;;;;;;;;5114383;28;20065;-77
2023/05/25 05:23:52;;;;;;;19.85;10.90;;;;;;;;;;5095313;28;20012;-78
2023/05/25 05:26:17;;;;;;;20.58;11.05;;;;;;;;;;5114773;28;20011;-78
2023/05/25 05:28:42;;;;;;;23.63;11.38;;;;;;;;;;5114226;28;20498;-78
2023/05/25 05:31:07;;;;;;;22.50;11.50;;;;;;;;;;5114325;28;20023;-78
2023/05/25 05:33:33;;;;;;;22.27;10.57;;;;;;;;;;5114472;28;20030;-79
2023/05/25 05:35:58;;;;;;;24.77;12.02;;;;;;;;;;5114335;28;20026;-77
2023/05/25 05:38:24;;;;;;;22.15;11.52;;;;;;;;;;5114358;28;20162;-77
2023/05/25 05:40:50;;;;;;;19.10;10.65;;;;;;;;;;5114132;28;20528;-77
2023/05/25 05:43:15;;;;;;;20.63;11.68;;;;;;;;;;5113912;28;20483;-78
2023/05/25 05:45:40;;;;;;;23.77;11.15;;;;;;;;;;5113820;28;20061;-79
2023/05/25 05:48:09;;;;;;;20.17;10.90;;;;;;;;;;5114012;28;20012;-78
2023/05/25 05:50:35;;;;;;;27.17;11.27;;;;;;;;;;5095679;28;20019;-79
2023/05/25 05:53:00;;;;;;;17.17;10.52;;;;;;;;;;5114173;28;20116;-79
2023/05/25 05:55:25;;;;;;;17.25;10.02;;;;;;;;;;5114192;28;20352;-79
2023/05/25 05:57:50;;;;;;;21.10;9.52;;;;;;;;;;5113994;28;20117;-77
2023/05/25 06:00:16;;;;;;;20.10;9.95;;;;;;;;;;5113462;28;20108;-79
2023/05/25 06:02:42;;;;;;;21.05;9.98;;;;;;;;;;5114081;28;20349;-77
2023/05/25 06:05:07;;;;;;;34.83;11.48;;;;;;;;;;5113788;28;20015;-76
2023/05/25 06:07:34;;;;;;;24.38;9.80;;;;;;;;;;5113602;28;20456;-78
2023/05/25 06:09:59;;;;;;;19.13;9.40;;;;;;;;;;5113496;28;20474;-79
2023/05/25 06:12:25;;;;;;;19.58;9.88;;;;;;;;;;5113686;28;20086;-77
2023/05/25 06:14:50;;;;;;;17.50;9.43;;;;;;;;;;5113565;28;20521;-78
2023/05/25 06:17:16;;;;;;;16.08;7.68;;;;;;;;;;5095124;28;20448;-77
2023/05/25 06:19:41;;;;;;;13.10;8.05;;;;;;;;;;5113402;28;20376;-78
2023/05/25 06:22:06;;;;;;;17.30;9.20;;;;;;;;;;5113479;28;20012;-78
2023/05/25 06:24:32;;;;;;;20.50;8.88;;;;;;;;;;5113279;28;20019;-78
2023/05/25 06:26:57;;;;;;;13.65;8.77;;;;;;;;;;5113337;28;20051;-78
2023/05/25 06:29:22;;;;;;;24.50;9.50;;;;;;;;;;5113177;28;20027;-79
2023/05/25 06:31:47;;;;;;;17.58;9.10;;;;;;;;;;5113344;28;20508;-79
2023/05/25 06:34:13;;;;;;;18.03;8.83;;;;;;;;;;5113000;28;20023;-79
2023/05/25 06:36:38;;;;;;;14.77;8.77;;;;;;;;;;5113668;28;20745;-78
2023/05/25 06:39:03;;;;;;;16.85;8.98;;;;;;;;;;5113085;28;20399;-76
2023/05/25 06:41:29;;;;;;;18.45;9.55;;;;;;;;;;5113215;28;20142;-78
2023/05/25 06:43:54;;;;;;;15.60;9.90;;;;;;;;;;5112873;28;20413;-79
2023/05/25 06:46:20;;;;;;;17.98;9.05;;;;;;;;;;5113193;28;20027;-78
2023/05/25 06:48:46;;;;;;;16.30;8.57;;;;;;;;;;5113307;28;20080;-76
2023/05/25 06:51:11;;;;;;;17.67;8.43;;;;;;;;;;5112954;28;20016;-78
2023/05/25 06:53:38;;;;;;;18.83;8.63;;;;;;;;;;5113398;28;20051;-78
2023/05/25 06:56:03;;;;;;;25.50;9.57;;;;;;;;;;5112932;28;20464;-78
2023/05/25 06:58:28;;;;;;;19.45;8.88;;;;;;;;;;5112543;28;20069;-77
2023/05/25 07:00:54;;;;;;;22.57;9.50;;;;;;;;;;5112763;28;20037;-76
2023/05/25 07:03:19;;;;;;;17.63;10.02;;;;;;;;;;5113003;28;20801;-76
2023/05/25 07:05:45;;;;;;;15.75;8.32;;;;;;;;;;5112938;28;20483;-78
2023/05/25 07:08:10;;;;;;;16.73;8.73;;;;;;;;;;5112830;28;20024;-78
2023/05/25 07:10:35;;;;;;;16.02;8.68;;;;;;;;;;5112869;28;20030;-79
2023/05/25 07:13:00;;;;;;;18.27;8.50;;;;;;;;;;5112741;28;20016;-77
2023/05/25 07:15:26;;;;;;;12.30;7.82;;;;;;;;;;5112965;28;20276;-78
2023/05/25 07:17:51;;;;;;;11.63;7.57;;;;;;;;;;5113287;28;20042;-77
2023/05/25 07:20:16;;;;;;;13.77;8.35;;;;;;;;;;5112869;28;20305;-78
2023/05/25 07:22:42;;;;;;;22.43;8.67;;;;;;;;;;5113091;28;20424;-79
2023/05/25 07:25:07;;;;;;;13.10;8.43;;;;;;;;;;5112476;28;20268;-80
2023/05/25 07:27:33;;;;;;;13.70;8.48;;;;;;;;;;5094048;28;20019;-79
2023/05/25 07:29:58;;;;;;;14.93;8.13;;;;;;;;;;5112604;28;20095;-78
2023/05/25 07:32:24;;;;;;;14.63;8.18;;;;;;;;;;5112584;28;20038;-76
2023/05/25 07:34:49;;;;;;;16.25;8.48;;;;;;;;;;5113034;28;20119;-77
2023/05/25 07:37:14;;;;;;;18.05;8.80;;;;;;;;;;5112909;28;20106;-77
2023/05/25 07:39:40;;;;;;;15.55;8.18;;;;;;;;;;5112505;28;20034;-77
2023/05/25 07:42:05;;;;;;;14.45;7.68;;;;;;;;;;5112349;28;20047;-79
2023/05/25 07:44:30;;;;;;;16.42;8.25;;;;;;;;;;5112664;28;20046;-78
2023/05/25 07:46:56;;;;;;;16.35;8.68;;;;;;;;;;5115640;28;20078;-78
2023/05/25 07:49:21;;;;;;;13.80;8.40;;;;;;;;;;5116573;28;20520;-77
2023/05/25 07:51:46;;;;;;;18.10;7.88;;;;;;;;;;5116748;28;20027;-78
2023/05/25 07:54:12;;;;;;;18.47;8.30;;;;;;;;;;5117221;28;20468;-76
2023/05/25 07:56:37;;;;;;;14.25;8.38;;;;;;;;;;5100298;28;20273;-77
2023/05/25 07:59:02;;;;;;;15.85;8.32;;;;;;;;;;5094971;28;20072;-78
2023/05/25 08:01:28;;;;;;;15.32;8.68;;;;;;;;;;5096191;28;20016;-78
2023/05/25 08:03:53;;;;;;;18.43;7.77;;;;;;;;;;5095816;28;20020;-79
2023/05/25 08:06:18;;;;;;;14.50;8.85;;;;;;;;;;5095684;28;20646;-77
2023/05/25 08:08:44;;;;;;;13.43;8.60;;;;;;;;;;5094363;28;20400;-79
2023/05/25 08:11:10;;;;;;;16.97;7.70;;;;;;;;;;5095705;28;20028;-77
2023/05/25 08:13:35;;;;;;;16.23;7.35;;;;;;;;;;5095386;28;20273;-78
2023/05/25 08:16:00;;;;;;;11.50;7.72;;;;;;;;;;5095590;28;20080;-77
2023/05/25 08:18:26;;;;;;;13.80;7.32;;;;;;;;;;5095380;28;20020;-76
2023/05/25 08:20:51;;;;;;;13.80;6.78;;;;;;;;;;5095618;28;20028;-79
2023/05/25 08:23:16;;;;;;;14.27;6.57;;;;;;;;;;5095451;28;20098;-78
2023/05/25 08:25:42;;;;;;;12.25;6.88;;;;;;;;;;5095541;28;20258;-78
2023/05/25 08:28:07;;;;;;;19.65;8.18;;;;;;;;;;5095146;28;20095;-77
2023/05/25 08:30:32;;;;;;;15.07;7.00;;;;;;;;;;5095349;28;20441;-78
2023/05/25 08:32:58;;;;;;;14.13;7.63;;;;;;;;;;5095351;28;20020;-78
2023/05/25 08:35:23;;;;;;;17.30;8.07;;;;;;;;;;5095384;28;20464;-79
2023/05/25 08:37:48;;;;;;;11.88;6.95;;;;;;;;;;5095363;28;20093;-78
2023/05/25 08:40:15;;;;;;;13.52;6.82;;;;;;;;;;5095004;28;20023;-79
2023/05/25 08:42:43;;;;;;;15.25;6.82;;;;;;;;;;5094850;28;20016;-79
2023/05/25 08:45:09;;;;;;;18.08;7.63;;;;;;;;;;5095241;28;20046;-77
2023/05/25 08:47:39;;;;;;;22.00;7.70;;;;;;;;;;5095022;28;20012;-78
2023/05/25 08:50:05;;;;;;;9.00;6.05;;;;;;;;;;5095051;28;20049;-79
2023/05/25 08:52:32;;;;;;;12.85;6.93;;;;;;;;;;5094742;28;20020;-78
2023/05/25 08:55:00;;;;;;;12.02;6.82;;;;;;;;;;5095001;28;20150;-78
2023/05/25 08:57:31;;;;;;;11.55;6.57;;;;;;;;;;5094495;28;20023;-78
2023/05/25 08:59:56;;;;;;;10.45;6.25;;;;;;;;;;5109282;28;20345;-77
2023/05/25 09:02:27;;;;;;;10.60;6.35;;;;;;;;;;5114902;28;20456;-78
2023/05/25 09:04:53;;;;;;;;;;;;;;;;;;5115415;28;20008;-78
2023/05/25 09:07:18;;;;;;;13.52;6.80;;;;;;;;;;5114946;28;19994;-77
2023/05/25 09:09:44;;;;;;;12.67;6.63;;;;;;;;;;5115015;28;20077;-78
2023/05/25 09:12:09;;;;;;;9.48;6.13;;;;;;;;;;5114771;28;20772;-78
2023/05/25 09:14:36;;;;;;;10.75;6.05;;;;;;;;;;5114981;28;20055;-77
2023/05/25 09:17:02;;;;;;;12.93;6.95;;;;;;;;;;5114903;28;20077;-77
2023/05/25 09:19:27;;;;;;;13.98;6.32;;;;;;;;;;5114629;28;20027;-77
2023/05/25 09:21:52;;;;;;;14.52;6.30;;;;;;;;;;5114537;28;20016;-79
2023/05/25 09:24:18;;;;;;;13.70;7.20;;;;;;;;;;5114366;28;20012;-78
2023/05/25 09:26:45;;;;;;;11.60;7.13;;;;;;;;;;5114483;28;20020;-78
2023/05/25 09:29:12;;;;;;;11.88;7.32;;;;;;;;;;5114465;28;20023;-78
2023/05/25 09:31:37;;;;;;;15.43;7.00;;;;;;;;;;5114423;28;20024;-77
2023/05/25 09:34:09;;;;;;;8.05;6.40;;;;;;;;;;5114565;28;20034;-78
2023/05/25 09:36:34;;;;;;;;;;;;;;;;;;5114828;28;20019;-78
2023/05/25 09:38:59;;;;;;;17.63;7.05;;;;;;;;;;5114049;28;19915;-78
2023/05/25 09:41:26;;;;;;;12.15;6.57;;;;;;;;;;5114296;28;20102;-79
2023/05/25 09:43:51;;;;;;;10.45;6.30;;;;;;;;;;5114008;28;20023;-78
2023/05/25 09:46:17;;;;;;;12.77;6.93;;;;;;;;;;5114137;28;20015;-78
2023/05/25 09:48:44;;;;;;;10.82;6.85;;;;;;;;;;5095707;28;20015;-78
2023/05/25 09:51:10;;;;;;;14.93;7.18;;;;;;;;;;5095645;28;20496;-76
2023/05/25 09:53:35;;;;;;;11.02;7.00;;;;;;;;;;5113987;28;20020;-77
2023/05/25 09:56:01;;;;;;;11.18;6.35;;;;;;;;;;5113904;28;20499;-79
2023/05/25 09:58:26;;;;;;;15.38;7.50;;;;;;;;;;5095391;28;20071;-78
2023/05/25 10:00:54;;;;;;;15.27;6.38;;;;;;;;;;5113854;28;20369;-78
2023/05/25 10:03:20;;;;;;;12.18;6.80;;;;;;;;;;5113707;28;20023;-78
2023/05/25 10:05:46;;;;;;;9.88;6.72;;;;;;;;;;5113636;28;20016;-78
2023/05/25 10:08:12;;;;;;;9.10;6.57;;;;;;;;;;5112937;28;20357;-77
2023/05/25 10:10:38;;;;;;;12.07;6.32;;;;;;;;;;5113775;28;20012;-77
2023/05/25 10:13:04;;;;;;;11.80;5.90;;;;;;;;;;5113545;28;20027;-78
2023/05/25 10:15:30;;;;;;;10.15;6.20;;;;;;;;;;5113462;28;20022;-79
2023/05/25 10:17:57;;;;;;;11.50;6.35;;;;;;;;;;5113499;28;20102;-77
2023/05/25 10:20:23;;;;;;;10.32;5.78;;;;;;;;;;5113368;28;20035;-78
2023/05/25 10:23:07;;;;;;;8.93;5.93;;;;;;;;;;5113320;28;20088;-78
2023/05/25 10:25:42;;;;;;;13.93;5.20;;;;;;;;;;5113514;28;20047;-76
2023/05/25 10:28:26;;;;;;;9.73;5.93;;;;;;;;;;5113545;28;20103;-78
2023/05/25 10:30:52;;;;;;;13.32;6.05;;;;;;;;;;5113228;28;20027;-77
2023/05/25 10:33:18;;;;;;;8.80;5.15;;;;;;;;;;5113335;28;20054;-78
2023/05/25 10:35:45;;;;;;;7.18;4.60;;;;;;;;;;5113113;28;20138;-76
2023/05/25 10:38:11;;;;;;;11.25;5.85;;;;;;;;;;5113149;28;20020;-78
2023/05/25 10:40:37;;;;;;;10.43;5.20;;;;;;;;;;5113065;28;20035;-79
2023/05/25 10:43:03;;;;;;;8.48;5.22;;;;;;;;;;5113256;28;20019;-77
2023/05/25 10:45:28;;;;;;;12.55;5.38;;;;;;;;;;5113209;28;20012;-78
2023/05/25 10:47:54;;;;;;;9.40;4.80;;;;;;;;;;5113731;28;20471;-78
2023/05/25 10:50:26;;;;;;;6.72;4.65;;;;;;;;;;5114615;28;20031;-78
2023/05/25 10:52:57;;;;;;;8.73;4.97;;;;;;;;;;5114651;28;20034;-78
2023/05/25 10:55:26;;;;;;;10.25;5.30;;;;;;;;;;5116274;28;20016;-78
2023/05/25 10:58:06;;;;;;;9.38;4.82;;;;;;;;;;5117007;28;20020;-80
2023/05/25 11:00:31;;;;;;;7.72;5.13;;;;;;;;;;5093876;28;20075;-76
2023/05/25 11:02:56;;;;;;;5.70;4.30;;;;;;;;;;5093414;28;20048;-77
2023/05/25 11:05:21;;;;;;;7.95;5.07;;;;;;;;;;5092948;28;20657;-77
2023/05/25 11:07:56;;;;;;;11.87;5.33;;;;;;;;;;5092790;28;20027;-78
2023/05/25 11:10:48;;;;;;;14.45;5.40;;;;;;;;;;5092815;28;20094;-78
2023/05/25 11:13:19;;;;;;;16.70;5.68;;;;;;;;;;5088650;28;20035;-78
2023/05/25 11:15:44;;;;;;;;;;;;;;;;;;5093212;28;20113;-76
2023/05/25 11:18:13;;;;;;;8.03;4.90;;;;;;;;;;5092911;28;20004;-79
2023/05/25 11:20:38;;;;;;;10.65;4.97;;;;;;;;;;5092187;28;20484;-78
2023/05/25 11:23:21;;;;;;;7.88;4.32;;;;;;;;;;5096665;28;20017;-79
2023/05/25 11:25:46;;;;;;;10.45;5.45;;;;;;;;;;5096944;28;20044;-79
2023/05/25 11:28:12;;;;;;;7.22;4.40;;;;;;;;;;5097445;28;20048;-77
2023/05/25 11:30:38;;;;;;;14.43;4.93;;;;;;;;;;5095466;28;20452;-77
2023/05/25 11:33:06;;;;;;;7.65;5.03;;;;;;;;;;5095142;28;20024;-78
2023/05/25 11:35:32;;;;;;;11.25;5.28;;;;;;;;;;5096233;28;20104;-77
2023/05/25 11:37:59;;;;;;;6.93;4.82;;;;;;;;;;5096623;28;20043;-79
2023/05/25 11:40:24;;;;;;;11.13;5.22;;;;;;;;;;5096501;28;20024;-78
2023/05/25 11:42:51;;;;;;;6.63;5.07;;;;;;;;;;5096281;28;20027;-77
2023/05/25 11:45:16;;;;;;;9.07;5.40;;;;;;;;;;5096193;28;20346;-77
2023/05/25 11:47:42;;;;;;;8.30;5.25;;;;;;;;;;5096307;28;20528;-78
2023/05/25 11:50:13;;;;;;;12.90;5.23;;;;;;;;;;5096130;28;20026;-78
2023/05/25 11:52:39;;;;;;;13.77;5.15;;;;;;;;;;5094999;28;20274;-78
2023/05/25 11:55:09;;;;;;;15.85;5.20;;;;;;;;;;5096188;28;20349;-77
2023/05/25 11:57:35;;;;;;;10.57;5.07;;;;;;;;;;5096099;28;20420;-81
2023/05/25 12:00:05;;;;;;;11.20;4.88;;;;;;;;;;5110880;28;20496;-78
2023/05/25 12:02:35;;;;;;;6.68;4.88;;;;;;;;;;5116159;28;20057;-78
2023/05/25 12:05:01;;;;;;;9.80;5.03;;;;;;;;;;5116627;28;20094;-79
2023/05/25 12:07:27;;;;;;;6.40;4.25;;;;;;;;;;5116259;28;20103;-78
2023/05/25 12:10:11;;;;;;;7.20;5.15;;;;;;;;;;5116128;28;20314;-78
2023/05/25 12:12:40;;;;;;;9.38;4.65;;;;;;;;;;5115939;28;20364;-80
2023/05/25 12:15:06;;;;;;;7.85;4.82;;;;;;;;;;5097528;28;20073;-78
2023/05/25 12:17:32;;;;;;;10.95;4.95;;;;;;;;;;5116038;28;20028;-77
2023/05/25 12:19:57;;;;;;;18.08;5.15;;;;;;;;;;5115697;28;20356;-78
2023/05/25 12:22:23;;;;;;;12.23;5.00;;;;;;;;;;5115903;28;20456;-77
2023/05/25 12:24:48;;;;;;;7.40;4.57;;;;;;;;;;5115880;28;20257;-76
2023/05/25 12:27:17;;;;;;;8.00;4.20;;;;;;;;;;5115805;28;20015;-77
2023/05/25 12:29:46;;;;;;;8.88;4.55;;;;;;;;;;5115457;28;20065;-77
2023/05/25 12:32:11;;;;;;;8.75;4.30;;;;;;;;;;5115219;28;20051;-78
2023/05/25 12:34:37;;;;;;;6.60;4.13;;;;;;;;;;5115742;28;20056;-77
2023/05/25 12:37:02;;;;;;;6.53;4.22;;;;;;;;;;5115660;28;20019;-78
2023/05/25 12:39:27;;;;;;;8.25;4.45;;;;;;;;;;5115483;28;20016;-79
2023/05/25 12:41:53;;;;;;;6.70;3.92;;;;;;;;;;5115553;28;20011;-76
2023/05/25 12:44:20;;;;;;;8.88;4.25;;;;;;;;;;5115179;28;20368;-76
2023/05/25 12:46:45;;;;;;;8.43;3.95;;;;;;;;;;5115492;28;20109;-79
2023/05/25 12:49:29;;;;;;;6.93;3.90;;;;;;;;;;5115682;28;20035;-78
2023/05/25 12:51:54;;;;;;;6.60;3.92;;;;;;;;;;5115421;28;20069;-77
2023/05/25 12:54:32;;;;;;;5.18;3.63;;;;;;;;;;5115263;28;20015;-77
2023/05/25 12:56:57;;;;;;;9.32;4.22;;;;;;;;;;5115190;28;20019;-77
2023/05/25 12:59:22;;;;;;;7.97;4.30;;;;;;;;;;5114893;28;20571;-78
2023/05/25 13:01:48;;;;;;;10.60;5.05;;;;;;;;;;5115124;28;20022;-77
2023/05/25 13:04:13;;;;;;;10.73;4.37;;;;;;;;;;5115380;28;20019;-77
2023/05/25 13:06:38;;;;;;;8.80;4.40;;;;;;;;;;5115010;28;20761;-79
2023/05/25 13:09:04;;;;;;;14.20;5.00;;;;;;;;;;5114993;28;20373;-79
2023/05/25 13:11:29;;;;;;;7.53;4.15;;;;;;;;;;5096462;28;20625;-80
2023/05/25 13:13:54;;;;;;;10.40;4.10;;;;;;;;;;5114908;28;20095;-77
2023/05/25 13:16:19;;;;;;;10.90;4.60;;;;;;;;;;5115113;28;20019;-80
2023/05/25 13:18:45;;;;;;;5.60;3.53;;;;;;;;;;5115366;28;20099;-79
2023/05/25 13:21:10;;;;;;;11.50;4.63;;;;;;;;;;5114915;28;20016;-78
2023/05/25 13:23:36;;;;;;;6.80;3.63;;;;;;;;;;5114821;28;20395;-78
2023/05/25 13:26:01;;;;;;;5.55;4.25;;;;;;;;;;5114654;28;20030;-78
2023/05/25 13:28:26;;;;;;;8.00;3.58;;;;;;;;;;5114697;28;20019;-77
2023/05/25 13:30:51;;;;;;;5.47;3.77;;;;;;;;;;5114776;28;20034;-78
2023/05/25 13:33:17;;;;;;;6.90;4.15;;;;;;;;;;5114595;28;20028;-78